sensor_id;sensor_type;location;lat;lon;timestamp;temperature;humidity
72604;DHT22;60645;56.968;24.196;2023-02-19T00:01:23;2.00;89.90
72604;DHT22;60645;56.968;24.196;2023-02-19T00:03:53;2.20;90.40
72604;DHT22;60645;56.968;24.196;2023-02-19T00:06:21;1.90;89.90
72604;DHT22;60645;56.968;24.196;2023-02-19T00:08:48;2.10;89.80
72604;DHT22;60645;56.968;24.196;2023-02-19T00:11:20;2.20;89.50
72604;DHT22;60645;56.968;24.196;2023-02-19T00:13:50;2.20;89.50
72604;DHT22;60645;56.968;24.196;2023-02-19T00:18:46;2.30;88.90
72604;DHT22;60645;56.968;24.196;2023-02-19T00:21:13;2.40;89.30
72604;DHT22;60645;56.968;24.196;2023-02-19T00:23:40;2.30;89.60
72604;DHT22;60645;56.968;24.196;2023-02-19T00:26:10;2.20;89.30
72604;DHT22;60645;56.968;24.196;2023-02-19T00:28:49;2.10;90.10
72604;DHT22;60645;56.968;24.196;2023-02-19T00:31:29;2.30;90.20
72604;DHT22;60645;56.968;24.196;2023-02-19T00:34:02;2.10;89.10
72604;DHT22;60645;56.968;24.196;2023-02-19T00:36:30;2.10;88.50
72604;DHT22;60645;56.968;24.196;2023-02-19T00:38:57;2.20;87.50
72604;DHT22;60645;56.968;24.196;2023-02-19T00:41:24;2.20;86.60
72604;DHT22;60645;56.968;24.196;2023-02-19T00:44:00;2.20;85.80
72604;DHT22;60645;56.968;24.196;2023-02-19T00:46:28;2.10;85.60
72604;DHT22;60645;56.968;24.196;2023-02-19T00:48:55;2.20;85.50
72604;DHT22;60645;56.968;24.196;2023-02-19T00:51:25;2.20;86.60
72604;DHT22;60645;56.968;24.196;2023-02-19T00:53:52;2.10;85.90
72604;DHT22;60645;56.968;24.196;2023-02-19T00:56:19;2.10;86.20
72604;DHT22;60645;56.968;24.196;2023-02-19T00:58:46;2.00;86.90
72604;DHT22;60645;56.968;24.196;2023-02-19T01:01:13;2.10;86.70
72604;DHT22;60645;56.968;24.196;2023-02-19T01:03:40;2.10;86.50
72604;DHT22;60645;56.968;24.196;2023-02-19T01:06:09;2.00;87.00
72604;DHT22;60645;56.968;24.196;2023-02-19T01:08:36;2.20;87.10
72604;DHT22;60645;56.968;24.196;2023-02-19T01:11:04;2.30;87.70
72604;DHT22;60645;56.968;24.196;2023-02-19T01:13:32;2.40;87.30
72604;DHT22;60645;56.968;24.196;2023-02-19T01:16:20;2.20;87.10
72604;DHT22;60645;56.968;24.196;2023-02-19T01:18:48;2.20;86.80
72604;DHT22;60645;56.968;24.196;2023-02-19T01:21:20;2.00;87.70
72604;DHT22;60645;56.968;24.196;2023-02-19T01:23:48;2.00;87.70
72604;DHT22;60645;56.968;24.196;2023-02-19T01:26:18;2.10;87.00
72604;DHT22;60645;56.968;24.196;2023-02-19T01:28:46;2.20;87.00
72604;DHT22;60645;56.968;24.196;2023-02-19T01:31:22;2.10;87.40
72604;DHT22;60645;56.968;24.196;2023-02-19T01:34:00;2.30;86.70
72604;DHT22;60645;56.968;24.196;2023-02-19T01:36:28;2.10;85.60
72604;DHT22;60645;56.968;24.196;2023-02-19T01:38:55;2.00;86.00
72604;DHT22;60645;56.968;24.196;2023-02-19T01:41:25;2.00;85.80
72604;DHT22;60645;56.968;24.196;2023-02-19T01:43:59;2.10;85.50
72604;DHT22;60645;56.968;24.196;2023-02-19T01:46:28;2.00;84.80
72604;DHT22;60645;56.968;24.196;2023-02-19T01:49:02;2.00;85.60
72604;DHT22;60645;56.968;24.196;2023-02-19T01:51:30;2.10;85.40
72604;DHT22;60645;56.968;24.196;2023-02-19T01:54:01;1.80;85.00
72604;DHT22;60645;56.968;24.196;2023-02-19T01:56:32;2.10;84.50
72604;DHT22;60645;56.968;24.196;2023-02-19T01:59:01;2.00;85.30
72604;DHT22;60645;56.968;24.196;2023-02-19T02:01:28;2.00;83.60
72604;DHT22;60645;56.968;24.196;2023-02-19T02:03:55;1.90;84.80
72604;DHT22;60645;56.968;24.196;2023-02-19T02:06:30;1.70;83.30
72604;DHT22;60645;56.968;24.196;2023-02-19T02:08:59;1.80;83.90
72604;DHT22;60645;56.968;24.196;2023-02-19T02:11:48;1.60;83.30
72604;DHT22;60645;56.968;24.196;2023-02-19T02:14:17;1.80;84.30
72604;DHT22;60645;56.968;24.196;2023-02-19T02:22:19;1.70;85.40
72604;DHT22;60645;56.968;24.196;2023-02-19T02:28:12;1.70;85.10
72604;DHT22;60645;56.968;24.196;2023-02-19T02:30:54;1.80;85.50
72604;DHT22;60645;56.968;24.196;2023-02-19T02:33:36;1.70;86.10
72604;DHT22;60645;56.968;24.196;2023-02-19T02:38:36;1.80;85.70
72604;DHT22;60645;56.968;24.196;2023-02-19T02:41:05;1.70;85.10
72604;DHT22;60645;56.968;24.196;2023-02-19T02:43:32;1.70;84.20
72604;DHT22;60645;56.968;24.196;2023-02-19T02:45:59;1.70;84.20
72604;DHT22;60645;56.968;24.196;2023-02-19T02:48:28;2.00;84.40
72604;DHT22;60645;56.968;24.196;2023-02-19T02:53:43;1.80;84.00
72604;DHT22;60645;56.968;24.196;2023-02-19T02:56:30;1.70;84.10
72604;DHT22;60645;56.968;24.196;2023-02-19T02:59:00;1.90;84.10
72604;DHT22;60645;56.968;24.196;2023-02-19T03:04:51;1.80;84.40
72604;DHT22;60645;56.968;24.196;2023-02-19T03:08:11;1.90;85.50
72604;DHT22;60645;56.968;24.196;2023-02-19T03:10:43;1.70;85.20
72604;DHT22;60645;56.968;24.196;2023-02-19T03:13:25;1.60;84.10
72604;DHT22;60645;56.968;24.196;2023-02-19T03:16:29;1.50;84.20
72604;DHT22;60645;56.968;24.196;2023-02-19T03:19:18;1.50;83.90
72604;DHT22;60645;56.968;24.196;2023-02-19T03:22:00;1.80;84.10
72604;DHT22;60645;56.968;24.196;2023-02-19T03:24:44;1.70;84.40
72604;DHT22;60645;56.968;24.196;2023-02-19T03:27:32;1.60;84.70
72604;DHT22;60645;56.968;24.196;2023-02-19T03:30:04;1.70;83.30
72604;DHT22;60645;56.968;24.196;2023-02-19T03:32:53;1.70;83.10
72604;DHT22;60645;56.968;24.196;2023-02-19T03:35:27;1.60;83.20
72604;DHT22;60645;56.968;24.196;2023-02-19T03:38:15;1.50;82.70
72604;DHT22;60645;56.968;24.196;2023-02-19T03:41:05;1.50;82.50
72604;DHT22;60645;56.968;24.196;2023-02-19T03:46:11;1.70;81.80
72604;DHT22;60645;56.968;24.196;2023-02-19T03:49:20;1.70;82.20
72604;DHT22;60645;56.968;24.196;2023-02-19T03:51:56;1.70;83.30
72604;DHT22;60645;56.968;24.196;2023-02-19T03:57:53;1.60;83.20
72604;DHT22;60645;56.968;24.196;2023-02-19T04:03:08;1.70;83.90
72604;DHT22;60645;56.968;24.196;2023-02-19T04:05:42;1.60;84.30
72604;DHT22;60645;56.968;24.196;2023-02-19T04:08:16;1.40;83.50
72604;DHT22;60645;56.968;24.196;2023-02-19T04:10:46;1.50;82.60
72604;DHT22;60645;56.968;24.196;2023-02-19T04:13:33;1.30;82.00
72604;DHT22;60645;56.968;24.196;2023-02-19T04:16:06;1.40;81.90
72604;DHT22;60645;56.968;24.196;2023-02-19T04:18:37;1.40;81.50
72604;DHT22;60645;56.968;24.196;2023-02-19T04:21:05;1.50;81.50
72604;DHT22;60645;56.968;24.196;2023-02-19T04:23:39;1.30;82.60
72604;DHT22;60645;56.968;24.196;2023-02-19T04:26:08;1.30;82.80
72604;DHT22;60645;56.968;24.196;2023-02-19T04:28:37;1.40;82.80
72604;DHT22;60645;56.968;24.196;2023-02-19T04:31:04;1.40;82.60
72604;DHT22;60645;56.968;24.196;2023-02-19T04:33:31;1.40;82.80
72604;DHT22;60645;56.968;24.196;2023-02-19T04:35:58;1.40;82.80
72604;DHT22;60645;56.968;24.196;2023-02-19T04:38:25;1.40;81.50
72604;DHT22;60645;56.968;24.196;2023-02-19T04:40:52;1.40;82.20
72604;DHT22;60645;56.968;24.196;2023-02-19T04:43:19;1.50;82.30
72604;DHT22;60645;56.968;24.196;2023-02-19T04:45:46;1.30;81.40
72604;DHT22;60645;56.968;24.196;2023-02-19T04:48:13;1.40;80.10
72604;DHT22;60645;56.968;24.196;2023-02-19T04:50:40;1.10;81.40
72604;DHT22;60645;56.968;24.196;2023-02-19T04:53:07;1.30;82.30
72604;DHT22;60645;56.968;24.196;2023-02-19T04:55:38;1.50;82.50
72604;DHT22;60645;56.968;24.196;2023-02-19T04:58:05;1.20;82.30
72604;DHT22;60645;56.968;24.196;2023-02-19T05:00:32;1.30;82.40
72604;DHT22;60645;56.968;24.196;2023-02-19T05:03:00;1.50;83.10
72604;DHT22;60645;56.968;24.196;2023-02-19T05:05:27;1.30;83.50
72604;DHT22;60645;56.968;24.196;2023-02-19T05:07:54;1.50;83.70
72604;DHT22;60645;56.968;24.196;2023-02-19T05:10:21;1.30;83.50
72604;DHT22;60645;56.968;24.196;2023-02-19T05:12:48;1.40;82.40
72604;DHT22;60645;56.968;24.196;2023-02-19T05:15:15;1.30;82.00
72604;DHT22;60645;56.968;24.196;2023-02-19T05:17:42;1.40;82.60
72604;DHT22;60645;56.968;24.196;2023-02-19T05:20:09;1.40;82.30
72604;DHT22;60645;56.968;24.196;2023-02-19T05:22:36;1.30;82.40
72604;DHT22;60645;56.968;24.196;2023-02-19T05:25:03;1.20;82.70
72604;DHT22;60645;56.968;24.196;2023-02-19T05:27:30;1.50;83.50
72604;DHT22;60645;56.968;24.196;2023-02-19T05:29:57;1.40;83.10
72604;DHT22;60645;56.968;24.196;2023-02-19T05:32:24;1.30;83.50
72604;DHT22;60645;56.968;24.196;2023-02-19T05:34:51;1.40;83.00
72604;DHT22;60645;56.968;24.196;2023-02-19T05:37:18;1.40;82.60
72604;DHT22;60645;56.968;24.196;2023-02-19T05:39:46;1.40;82.40
72604;DHT22;60645;56.968;24.196;2023-02-19T05:42:13;1.20;81.50
72604;DHT22;60645;56.968;24.196;2023-02-19T05:44:41;1.60;82.20
72604;DHT22;60645;56.968;24.196;2023-02-19T05:47:09;1.30;82.50
72604;DHT22;60645;56.968;24.196;2023-02-19T05:49:36;1.30;82.20
72604;DHT22;60645;56.968;24.196;2023-02-19T05:52:03;1.40;82.30
72604;DHT22;60645;56.968;24.196;2023-02-19T05:54:30;1.40;81.70
72604;DHT22;60645;56.968;24.196;2023-02-19T05:56:57;1.30;82.40
72604;DHT22;60645;56.968;24.196;2023-02-19T05:59:25;1.20;82.80
72604;DHT22;60645;56.968;24.196;2023-02-19T06:01:53;1.70;82.10
72604;DHT22;60645;56.968;24.196;2023-02-19T06:04:20;1.30;82.60
72604;DHT22;60645;56.968;24.196;2023-02-19T06:06:48;1.40;82.40
72604;DHT22;60645;56.968;24.196;2023-02-19T06:09:15;1.60;82.60
72604;DHT22;60645;56.968;24.196;2023-02-19T06:11:42;1.50;82.20
72604;DHT22;60645;56.968;24.196;2023-02-19T06:14:12;1.60;82.50
72604;DHT22;60645;56.968;24.196;2023-02-19T06:16:39;1.30;82.70
72604;DHT22;60645;56.968;24.196;2023-02-19T06:19:06;1.40;82.10
72604;DHT22;60645;56.968;24.196;2023-02-19T06:21:33;1.40;82.00
72604;DHT22;60645;56.968;24.196;2023-02-19T06:24:07;1.40;82.70
72604;DHT22;60645;56.968;24.196;2023-02-19T06:26:34;1.20;81.80
72604;DHT22;60645;56.968;24.196;2023-02-19T06:29:01;1.20;81.90
72604;DHT22;60645;56.968;24.196;2023-02-19T06:31:28;1.50;82.00
72604;DHT22;60645;56.968;24.196;2023-02-19T06:33:55;1.50;82.30
72604;DHT22;60645;56.968;24.196;2023-02-19T06:36:23;1.40;82.00
72604;DHT22;60645;56.968;24.196;2023-02-19T06:38:50;1.50;82.20
72604;DHT22;60645;56.968;24.196;2023-02-19T06:41:17;1.80;81.70
72604;DHT22;60645;56.968;24.196;2023-02-19T06:43:45;1.60;81.50
72604;DHT22;60645;56.968;24.196;2023-02-19T06:46:12;1.50;81.80
72604;DHT22;60645;56.968;24.196;2023-02-19T06:48:41;1.50;81.10
72604;DHT22;60645;56.968;24.196;2023-02-19T06:51:13;1.90;80.60
72604;DHT22;60645;56.968;24.196;2023-02-19T06:53:40;1.80;81.30
72604;DHT22;60645;56.968;24.196;2023-02-19T06:56:22;2.10;79.70
72604;DHT22;60645;56.968;24.196;2023-02-19T06:58:51;2.70;78.60
72604;DHT22;60645;56.968;24.196;2023-02-19T07:01:18;2.70;77.50
72604;DHT22;60645;56.968;24.196;2023-02-19T07:03:45;2.70;77.90
72604;DHT22;60645;56.968;24.196;2023-02-19T07:06:12;2.50;79.00
72604;DHT22;60645;56.968;24.196;2023-02-19T07:08:39;2.40;78.40
72604;DHT22;60645;56.968;24.196;2023-02-19T07:11:06;2.20;79.40
72604;DHT22;60645;56.968;24.196;2023-02-19T07:13:33;2.20;78.50
72604;DHT22;60645;56.968;24.196;2023-02-19T07:16:02;2.40;78.90
72604;DHT22;60645;56.968;24.196;2023-02-19T07:18:30;2.40;78.50
72604;DHT22;60645;56.968;24.196;2023-02-19T07:21:04;2.20;79.80
72604;DHT22;60645;56.968;24.196;2023-02-19T07:23:31;2.50;78.90
72604;DHT22;60645;56.968;24.196;2023-02-19T07:25:59;2.40;78.50
72604;DHT22;60645;56.968;24.196;2023-02-19T07:28:26;2.20;78.90
72604;DHT22;60645;56.968;24.196;2023-02-19T07:30:53;2.40;79.00
72604;DHT22;60645;56.968;24.196;2023-02-19T07:33:20;2.60;78.90
72604;DHT22;60645;56.968;24.196;2023-02-19T07:35:48;2.60;79.00
72604;DHT22;60645;56.968;24.196;2023-02-19T07:38:16;2.50;79.30
72604;DHT22;60645;56.968;24.196;2023-02-19T07:41:03;2.40;78.40
72604;DHT22;60645;56.968;24.196;2023-02-19T07:43:33;2.70;79.10
72604;DHT22;60645;56.968;24.196;2023-02-19T07:46:04;2.60;77.80
72604;DHT22;60645;56.968;24.196;2023-02-19T07:48:32;2.60;77.80
72604;DHT22;60645;56.968;24.196;2023-02-19T07:51:00;2.50;76.80
72604;DHT22;60645;56.968;24.196;2023-02-19T07:53:27;2.60;78.60
72604;DHT22;60645;56.968;24.196;2023-02-19T07:55:58;2.60;78.20
72604;DHT22;60645;56.968;24.196;2023-02-19T07:58:26;2.50;77.40
72604;DHT22;60645;56.968;24.196;2023-02-19T08:00:53;2.60;76.90
72604;DHT22;60645;56.968;24.196;2023-02-19T08:03:21;2.70;76.80
72604;DHT22;60645;56.968;24.196;2023-02-19T08:05:48;2.60;77.30
72604;DHT22;60645;56.968;24.196;2023-02-19T08:08:19;2.70;76.10
72604;DHT22;60645;56.968;24.196;2023-02-19T08:10:46;2.80;77.10
72604;DHT22;60645;56.968;24.196;2023-02-19T08:13:32;2.80;76.10
72604;DHT22;60645;56.968;24.196;2023-02-19T08:18:47;2.70;77.40
72604;DHT22;60645;56.968;24.196;2023-02-19T08:21:15;2.60;76.10
72604;DHT22;60645;56.968;24.196;2023-02-19T08:23:46;2.60;75.60
72604;DHT22;60645;56.968;24.196;2023-02-19T08:26:16;2.50;75.70
72604;DHT22;60645;56.968;24.196;2023-02-19T08:28:43;2.40;75.90
72604;DHT22;60645;56.968;24.196;2023-02-19T08:31:11;2.40;76.10
72604;DHT22;60645;56.968;24.196;2023-02-19T08:33:39;2.40;76.30
72604;DHT22;60645;56.968;24.196;2023-02-19T08:36:08;2.40;77.10
72604;DHT22;60645;56.968;24.196;2023-02-19T08:38:35;2.60;75.00
72604;DHT22;60645;56.968;24.196;2023-02-19T08:41:12;2.80;75.40
72604;DHT22;60645;56.968;24.196;2023-02-19T08:43:40;3.20;71.80
72604;DHT22;60645;56.968;24.196;2023-02-19T08:46:08;3.00;71.70
72604;DHT22;60645;56.968;24.196;2023-02-19T08:48:37;2.90;72.80
72604;DHT22;60645;56.968;24.196;2023-02-19T08:51:07;2.80;71.90
72604;DHT22;60645;56.968;24.196;2023-02-19T08:53:36;2.60;72.20
72604;DHT22;60645;56.968;24.196;2023-02-19T08:56:05;2.70;72.90
72604;DHT22;60645;56.968;24.196;2023-02-19T08:58:32;2.60;72.00
72604;DHT22;60645;56.968;24.196;2023-02-19T09:00:59;2.70;71.60
72604;DHT22;60645;56.968;24.196;2023-02-19T09:03:26;2.70;71.90
72604;DHT22;60645;56.968;24.196;2023-02-19T09:05:53;2.90;71.60
72604;DHT22;60645;56.968;24.196;2023-02-19T09:08:20;2.70;72.50
72604;DHT22;60645;56.968;24.196;2023-02-19T09:10:57;2.50;72.80
72604;DHT22;60645;56.968;24.196;2023-02-19T09:13:24;2.60;72.40
72604;DHT22;60645;56.968;24.196;2023-02-19T09:15:51;2.60;72.50
72604;DHT22;60645;56.968;24.196;2023-02-19T09:18:18;2.50;71.70
72604;DHT22;60645;56.968;24.196;2023-02-19T09:20:45;2.50;72.50
72604;DHT22;60645;56.968;24.196;2023-02-19T09:23:12;2.60;73.20
72604;DHT22;60645;56.968;24.196;2023-02-19T09:25:38;2.60;72.50
72604;DHT22;60645;56.968;24.196;2023-02-19T09:28:05;2.60;73.90
72604;DHT22;60645;56.968;24.196;2023-02-19T09:30:32;2.50;73.60
72604;DHT22;60645;56.968;24.196;2023-02-19T09:32:59;2.40;72.10
72604;DHT22;60645;56.968;24.196;2023-02-19T09:35:26;2.50;74.00
72604;DHT22;60645;56.968;24.196;2023-02-19T09:37:53;2.40;72.90
72604;DHT22;60645;56.968;24.196;2023-02-19T09:40:20;2.40;72.80
72604;DHT22;60645;56.968;24.196;2023-02-19T09:42:49;2.40;72.30
72604;DHT22;60645;56.968;24.196;2023-02-19T09:45:22;2.60;74.20
72604;DHT22;60645;56.968;24.196;2023-02-19T09:47:53;2.70;74.10
72604;DHT22;60645;56.968;24.196;2023-02-19T09:50:26;3.10;71.80
72604;DHT22;60645;56.968;24.196;2023-02-19T09:52:59;3.10;72.40
72604;DHT22;60645;56.968;24.196;2023-02-19T09:55:38;3.10;71.20
72604;DHT22;60645;56.968;24.196;2023-02-19T09:58:23;3.10;72.50
72604;DHT22;60645;56.968;24.196;2023-02-19T10:00:54;3.10;73.00
72604;DHT22;60645;56.968;24.196;2023-02-19T10:03:31;3.10;73.00
72604;DHT22;60645;56.968;24.196;2023-02-19T10:06:24;3.00;72.70
72604;DHT22;60645;56.968;24.196;2023-02-19T10:09:05;3.00;73.80
72604;DHT22;60645;56.968;24.196;2023-02-19T10:11:36;3.10;73.50
72604;DHT22;60645;56.968;24.196;2023-02-19T10:14:20;3.10;73.90
72604;DHT22;60645;56.968;24.196;2023-02-19T10:16:49;2.90;74.20
72604;DHT22;60645;56.968;24.196;2023-02-19T10:19:16;2.80;74.50
72604;DHT22;60645;56.968;24.196;2023-02-19T10:21:43;2.90;76.60
72604;DHT22;60645;56.968;24.196;2023-02-19T10:24:23;2.70;76.50
72604;DHT22;60645;56.968;24.196;2023-02-19T10:26:51;2.90;76.90
72604;DHT22;60645;56.968;24.196;2023-02-19T10:29:19;2.90;77.30
72604;DHT22;60645;56.968;24.196;2023-02-19T10:31:47;2.70;77.90
72604;DHT22;60645;56.968;24.196;2023-02-19T10:34:19;2.60;77.50
72604;DHT22;60645;56.968;24.196;2023-02-19T10:36:49;2.70;77.40
72604;DHT22;60645;56.968;24.196;2023-02-19T10:41:50;3.00;77.70
72604;DHT22;60645;56.968;24.196;2023-02-19T10:44:21;2.90;77.70
72604;DHT22;60645;56.968;24.196;2023-02-19T10:46:52;3.00;75.90
72604;DHT22;60645;56.968;24.196;2023-02-19T10:51:48;2.50;77.20
72604;DHT22;60645;56.968;24.196;2023-02-19T10:54:19;2.70;76.90
72604;DHT22;60645;56.968;24.196;2023-02-19T10:56:46;2.90;77.70
72604;DHT22;60645;56.968;24.196;2023-02-19T11:02:16;3.20;77.70
72604;DHT22;60645;56.968;24.196;2023-02-19T11:07:29;3.20;79.00
72604;DHT22;60645;56.968;24.196;2023-02-19T11:09:57;3.10;78.90
72604;DHT22;60645;56.968;24.196;2023-02-19T11:12:29;3.30;78.90
72604;DHT22;60645;56.968;24.196;2023-02-19T11:18:14;3.20;79.30
72604;DHT22;60645;56.968;24.196;2023-02-19T11:20:52;3.30;78.00
72604;DHT22;60645;56.968;24.196;2023-02-19T11:23:28;3.30;78.80
72604;DHT22;60645;56.968;24.196;2023-02-19T11:25:58;2.90;80.70
72604;DHT22;60645;56.968;24.196;2023-02-19T11:30:52;2.60;83.10
72604;DHT22;60645;56.968;24.196;2023-02-19T11:33:25;2.70;83.50
72604;DHT22;60645;56.968;24.196;2023-02-19T11:36:43;2.50;83.20
72604;DHT22;60645;56.968;24.196;2023-02-19T11:38:45;2.20;83.80
72604;DHT22;60645;56.968;24.196;2023-02-19T11:49:36;2.70;85.50
72604;DHT22;60645;56.968;24.196;2023-02-19T11:55:01;2.90;83.00
72604;DHT22;60645;56.968;24.196;2023-02-19T11:57:44;2.90;83.00
72604;DHT22;60645;56.968;24.196;2023-02-19T12:05:48;2.60;82.70
72604;DHT22;60645;56.968;24.196;2023-02-19T12:08:33;2.70;83.30
72604;DHT22;60645;56.968;24.196;2023-02-19T12:19:41;2.70;82.80
72604;DHT22;60645;56.968;24.196;2023-02-19T12:22:32;2.60;83.40
72604;DHT22;60645;56.968;24.196;2023-02-19T12:27:56;2.50;83.90
72604;DHT22;60645;56.968;24.196;2023-02-19T12:36:27;1.90;87.00
72604;DHT22;60645;56.968;24.196;2023-02-19T12:39:28;1.80;87.90
72604;DHT22;60645;56.968;24.196;2023-02-19T12:44:35;1.60;90.50
72604;DHT22;60645;56.968;24.196;2023-02-19T12:47:04;1.60;90.20
72604;DHT22;60645;56.968;24.196;2023-02-19T12:49:37;1.40;89.90
72604;DHT22;60645;56.968;24.196;2023-02-19T12:52:24;1.60;89.60
72604;DHT22;60645;56.968;24.196;2023-02-19T12:54:53;1.60;90.30
72604;DHT22;60645;56.968;24.196;2023-02-19T12:57:31;1.60;88.60
72604;DHT22;60645;56.968;24.196;2023-02-19T13:00:10;1.60;88.60
72604;DHT22;60645;56.968;24.196;2023-02-19T13:02:49;1.70;86.10
72604;DHT22;60645;56.968;24.196;2023-02-19T13:05:25;1.80;84.00
72604;DHT22;60645;56.968;24.196;2023-02-19T13:08:10;1.90;83.80
72604;DHT22;60645;56.968;24.196;2023-02-19T13:10:46;2.00;83.00
72604;DHT22;60645;56.968;24.196;2023-02-19T13:13:27;2.10;82.30
72604;DHT22;60645;56.968;24.196;2023-02-19T13:15:59;2.10;83.00
72604;DHT22;60645;56.968;24.196;2023-02-19T13:18:36;2.00;82.20
72604;DHT22;60645;56.968;24.196;2023-02-19T13:21:05;1.90;83.30
72604;DHT22;60645;56.968;24.196;2023-02-19T13:23:36;1.80;83.30
72604;DHT22;60645;56.968;24.196;2023-02-19T13:26:34;2.00;84.10
72604;DHT22;60645;56.968;24.196;2023-02-19T13:37:07;1.60;86.20
72604;DHT22;60645;56.968;24.196;2023-02-19T13:39:35;1.30;86.70
72604;DHT22;60645;56.968;24.196;2023-02-19T13:42:03;1.40;86.80
72604;DHT22;60645;56.968;24.196;2023-02-19T13:44:32;1.50;86.60
72604;DHT22;60645;56.968;24.196;2023-02-19T13:47:00;1.30;86.90
72604;DHT22;60645;56.968;24.196;2023-02-19T13:52:01;1.50;87.20
72604;DHT22;60645;56.968;24.196;2023-02-19T13:54:30;1.20;86.70
72604;DHT22;60645;56.968;24.196;2023-02-19T13:59:51;1.60;85.70
72604;DHT22;60645;56.968;24.196;2023-02-19T14:04:49;1.60;84.10
72604;DHT22;60645;56.968;24.196;2023-02-19T14:09:45;1.80;82.90
72604;DHT22;60645;56.968;24.196;2023-02-19T14:25:44;1.90;82.60
72604;DHT22;60645;56.968;24.196;2023-02-19T14:28:20;1.80;83.00
72604;DHT22;60645;56.968;24.196;2023-02-19T14:30:51;1.70;83.40
72604;DHT22;60645;56.968;24.196;2023-02-19T14:33:33;1.70;83.10
72604;DHT22;60645;56.968;24.196;2023-02-19T14:41:20;1.80;82.20
72604;DHT22;60645;56.968;24.196;2023-02-19T14:43:50;1.60;83.00
72604;DHT22;60645;56.968;24.196;2023-02-19T14:46:33;1.80;83.30
72604;DHT22;60645;56.968;24.196;2023-02-19T14:49:06;1.60;82.90
72604;DHT22;60645;56.968;24.196;2023-02-19T14:51:40;1.80;82.10
72604;DHT22;60645;56.968;24.196;2023-02-19T14:54:19;1.60;83.30
72604;DHT22;60645;56.968;24.196;2023-02-19T14:56:50;1.50;82.90
72604;DHT22;60645;56.968;24.196;2023-02-19T15:01:45;1.50;83.20
72604;DHT22;60645;56.968;24.196;2023-02-19T15:04:27;1.60;82.70
72604;DHT22;60645;56.968;24.196;2023-02-19T15:06:55;1.60;82.30
72604;DHT22;60645;56.968;24.196;2023-02-19T15:09:33;1.70;82.60
72604;DHT22;60645;56.968;24.196;2023-02-19T15:12:02;1.60;82.60
72604;DHT22;60645;56.968;24.196;2023-02-19T15:14:31;1.70;83.10
72604;DHT22;60645;56.968;24.196;2023-02-19T15:17:02;1.60;83.10
72604;DHT22;60645;56.968;24.196;2023-02-19T15:19:35;1.40;82.90
72604;DHT22;60645;56.968;24.196;2023-02-19T15:22:05;1.70;83.30
72604;DHT22;60645;56.968;24.196;2023-02-19T15:24:32;1.60;83.40
72604;DHT22;60645;56.968;24.196;2023-02-19T15:26:59;1.60;83.00
72604;DHT22;60645;56.968;24.196;2023-02-19T15:29:26;1.50;83.40
72604;DHT22;60645;56.968;24.196;2023-02-19T15:31:56;1.40;83.40
72604;DHT22;60645;56.968;24.196;2023-02-19T15:34:28;1.70;83.40
72604;DHT22;60645;56.968;24.196;2023-02-19T15:37:03;1.50;83.10
72604;DHT22;60645;56.968;24.196;2023-02-19T15:39:37;1.80;83.50
72604;DHT22;60645;56.968;24.196;2023-02-19T15:42:05;1.50;83.00
72604;DHT22;60645;56.968;24.196;2023-02-19T15:45:01;1.70;82.70
72604;DHT22;60645;56.968;24.196;2023-02-19T15:50:26;1.50;83.80
72604;DHT22;60645;56.968;24.196;2023-02-19T15:53:05;1.70;83.00
72604;DHT22;60645;56.968;24.196;2023-02-19T15:58:39;1.30;83.10
72604;DHT22;60645;56.968;24.196;2023-02-19T16:01:24;1.50;83.70
72604;DHT22;60645;56.968;24.196;2023-02-19T16:03:52;1.50;84.00
72604;DHT22;60645;56.968;24.196;2023-02-19T16:06:23;1.50;84.10
72604;DHT22;60645;56.968;24.196;2023-02-19T16:13:49;1.40;83.60
72604;DHT22;60645;56.968;24.196;2023-02-19T16:16:37;1.50;84.30
72604;DHT22;60645;56.968;24.196;2023-02-19T16:19:05;1.50;84.10
72604;DHT22;60645;56.968;24.196;2023-02-19T16:21:32;1.30;84.10
72604;DHT22;60645;56.968;24.196;2023-02-19T16:24:11;1.40;84.60
72604;DHT22;60645;56.968;24.196;2023-02-19T16:26:43;1.40;85.20
72604;DHT22;60645;56.968;24.196;2023-02-19T16:29:23;1.40;84.90
72604;DHT22;60645;56.968;24.196;2023-02-19T16:31:53;1.50;84.60
72604;DHT22;60645;56.968;24.196;2023-02-19T16:34:42;1.50;85.20
72604;DHT22;60645;56.968;24.196;2023-02-19T16:37:54;1.50;85.40
72604;DHT22;60645;56.968;24.196;2023-02-19T16:45:43;1.40;84.80
72604;DHT22;60645;56.968;24.196;2023-02-19T16:48:11;1.40;85.30
72604;DHT22;60645;56.968;24.196;2023-02-19T16:50:39;1.20;85.50
72604;DHT22;60645;56.968;24.196;2023-02-19T16:53:24;1.40;86.10
72604;DHT22;60645;56.968;24.196;2023-02-19T16:55:51;1.30;85.90
72604;DHT22;60645;56.968;24.196;2023-02-19T16:58:18;1.40;86.40
72604;DHT22;60645;56.968;24.196;2023-02-19T17:00:45;1.50;86.60
72604;DHT22;60645;56.968;24.196;2023-02-19T17:03:15;1.20;86.40
72604;DHT22;60645;56.968;24.196;2023-02-19T17:05:44;1.30;86.20
72604;DHT22;60645;56.968;24.196;2023-02-19T17:11:05;1.40;84.70
72604;DHT22;60645;56.968;24.196;2023-02-19T17:13:32;1.60;84.20
72604;DHT22;60645;56.968;24.196;2023-02-19T17:15:59;1.40;84.40
72604;DHT22;60645;56.968;24.196;2023-02-19T17:18:27;1.40;83.90
72604;DHT22;60645;56.968;24.196;2023-02-19T17:21:38;1.50;83.50
72604;DHT22;60645;56.968;24.196;2023-02-19T17:23:46;1.50;83.30
72604;DHT22;60645;56.968;24.196;2023-02-19T17:26:21;1.50;82.70
72604;DHT22;60645;56.968;24.196;2023-02-19T17:28:48;1.60;82.70
72604;DHT22;60645;56.968;24.196;2023-02-19T17:31:16;1.40;82.70
72604;DHT22;60645;56.968;24.196;2023-02-19T17:33:43;1.50;82.60
72604;DHT22;60645;56.968;24.196;2023-02-19T17:36:19;1.40;83.20
72604;DHT22;60645;56.968;24.196;2023-02-19T17:38:46;1.40;83.70
72604;DHT22;60645;56.968;24.196;2023-02-19T17:41:13;1.30;84.20
72604;DHT22;60645;56.968;24.196;2023-02-19T17:43:40;1.30;83.60
72604;DHT22;60645;56.968;24.196;2023-02-19T17:46:13;1.20;84.60
72604;DHT22;60645;56.968;24.196;2023-02-19T17:48:41;1.10;84.10
72604;DHT22;60645;56.968;24.196;2023-02-19T17:51:08;1.50;84.40
72604;DHT22;60645;56.968;24.196;2023-02-19T17:53:35;1.40;84.80
72604;DHT22;60645;56.968;24.196;2023-02-19T17:56:02;1.20;84.70
72604;DHT22;60645;56.968;24.196;2023-02-19T17:58:29;1.20;85.80
72604;DHT22;60645;56.968;24.196;2023-02-19T18:00:56;1.10;85.70
72604;DHT22;60645;56.968;24.196;2023-02-19T18:03:23;1.10;85.90
72604;DHT22;60645;56.968;24.196;2023-02-19T18:05:50;1.20;85.70
72604;DHT22;60645;56.968;24.196;2023-02-19T18:08:17;1.30;85.60
72604;DHT22;60645;56.968;24.196;2023-02-19T18:10:44;1.00;85.00
72604;DHT22;60645;56.968;24.196;2023-02-19T18:13:11;1.20;85.10
72604;DHT22;60645;56.968;24.196;2023-02-19T18:15:37;1.20;84.90
72604;DHT22;60645;56.968;24.196;2023-02-19T18:18:04;1.20;85.30
72604;DHT22;60645;56.968;24.196;2023-02-19T18:20:31;1.00;85.70